Time;durP1;ratioP1;P1;durP2;ratioP2;P2;SDS_P1;SDS_P2;PMS_P1;PMS_P2;Temp;Humidity;BMP_temperature;BMP_pressure;BME280_temperature;BME280_humidity;BME280_pressure;Samples;Min_cycle;Max_cycle;Signal;HPM_P1;HPM_P2
2022/05/23 00:01:27;;;;;;;2.53;2.35;;;20.30;43.00;;;;;;20547;6901;117867;-75
2022/05/23 00:03:51;;;;;;;2.67;2.47;;;20.10;43.30;;;;;;20341;6901;280502;-79
2022/05/23 00:06:20;;;;;;;2.53;2.10;;;20.30;44.20;;;;;;20537;6901;118792;-75
2022/05/23 00:08:45;;;;;;;2.60;2.40;;;20.30;43.70;;;;;;20547;6901;117587;-75
2022/05/23 00:11:10;;;;;;;2.73;2.27;;;20.00;43.60;;;;;;20547;6901;117854;-75
2022/05/23 00:13:37;;;;;;;2.83;2.62;;;19.90;43.80;;;;;;20317;6905;310243;-77
2022/05/23 00:16:03;;;;;;;3.60;2.33;;;20.10;44.10;;;;;;20530;6901;119053;-76
2022/05/23 00:18:28;;;;;;;2.42;2.30;;;20.00;43.60;;;;;;20548;6901;117786;-76
2022/05/23 00:20:54;;;;;;;4.77;2.20;;;19.80;43.70;;;;;;20556;6901;118022;-80
2022/05/23 00:23:19;;;;;;;2.30;2.20;;;19.60;44.00;;;;;;20337;6901;309875;-76
2022/05/23 00:25:45;;;;;;;2.80;2.60;;;19.80;44.60;;;;;;20331;6901;280984;-75
2022/05/23 00:28:11;;;;;;;2.30;2.20;;;20.10;44.10;;;;;;20317;6901;310501;-79
2022/05/23 00:30:36;;;;;;;3.28;2.50;;;20.40;43.90;;;;;;20289;6920;281570;-75
2022/05/23 00:35:50;;;;;;;2.33;1.93;;;20.30;43.40;;;;;;20547;6901;117474;-78
2022/05/23 00:38:16;;;;;;;2.07;1.97;;;19.90;43.80;;;;;;20520;6901;118118;-76
2022/05/23 00:43:50;;;;;;;2.50;2.30;;;19.80;44.80;;;;;;20547;6901;122373;-75
2022/05/23 00:46:15;;;;;;;2.20;2.10;;;19.60;44.20;;;;;;20521;6901;118159;-75
2022/05/23 00:48:43;;;;;;;2.70;2.50;;;19.60;44.90;;;;;;20343;6901;285026;-75
2022/05/23 00:51:11;;;;;;;2.37;2.27;;;19.60;44.80;;;;;;20546;6901;117622;-77
2022/05/23 00:53:37;;;;;;;2.60;2.40;;;19.60;44.50;;;;;;20325;6901;279788;-75
2022/05/23 00:56:03;;;;;;;2.57;2.47;;;19.70;44.70;;;;;;20450;6901;117715;-79
2022/05/23 00:58:28;;;;;;;2.50;2.17;;;19.60;44.40;;;;;;20530;6899;118871;-78
2022/05/23 01:00:54;;;;;;;2.40;2.20;;;19.40;44.60;;;;;;20315;6904;311036;-78
2022/05/23 01:03:19;;;;;;;3.08;2.08;;;19.60;45.00;;;;;;20544;6901;117429;-79
2022/05/23 01:05:45;;;;;;;2.40;2.20;;;19.60;44.70;;;;;;20543;6901;118010;-75
2022/05/23 01:08:10;;;;;;;2.30;2.10;;;19.40;44.70;;;;;;20525;6901;117513;-75
2022/05/23 01:10:36;;;;;;;3.07;2.20;;;19.20;44.90;;;;;;20530;6901;118645;-79
2022/05/23 01:13:02;;;;;;;2.57;2.47;;;19.00;45.00;;;;;;20526;6905;118065;-75
2022/05/23 01:15:27;;;;;;;2.30;2.20;;;18.90;45.10;;;;;;20542;6901;118344;-74
2022/05/23 01:17:53;;;;;;;3.33;2.50;;;18.80;45.30;;;;;;20320;6901;309749;-76
2022/05/23 01:20:18;;;;;;;2.50;2.30;;;19.10;46.00;;;;;;20319;6901;280210;-75
2022/05/23 01:23:05;;;;;;;2.50;2.30;;;19.60;45.00;;;;;;20551;6901;117749;-81
2022/05/23 01:25:33;;;;;;;2.80;2.60;;;19.50;44.90;;;;;;20339;6901;310205;-75
2022/05/23 01:27:59;;;;;;;2.27;2.13;;;19.70;45.50;;;;;;20517;6901;121530;-75
2022/05/23 01:30:24;;;;;;;2.57;2.43;;;19.60;44.70;;;;;;20332;6901;347972;-75
2022/05/23 01:32:50;;;;;;;2.80;2.50;;;19.70;44.80;;;;;;20339;6901;281570;-77
2022/05/23 01:35:16;;;;;;;2.20;2.10;;;20.10;44.30;;;;;;20335;6901;339450;-75
2022/05/23 01:37:42;;;;;;;2.53;2.33;;;20.00;44.20;;;;;;20528;6905;118831;-76
2022/05/23 01:40:07;;;;;;;2.83;2.53;;;19.90;44.30;;;;;;20530;6901;118138;-76
2022/05/23 01:42:33;;;;;;;2.50;2.30;;;19.50;44.50;;;;;;20537;6901;117799;-75
2022/05/23 01:44:59;;;;;;;2.78;2.37;;;19.30;44.80;;;;;;20331;6901;339399;-78
2022/05/23 01:47:25;;;;;;;2.60;2.40;;;19.40;44.90;;;;;;20550;6901;117593;-77
2022/05/23 01:49:50;;;;;;;2.50;2.13;;;19.40;44.90;;;;;;20540;6901;117787;-76
2022/05/23 01:52:16;;;;;;;2.77;2.57;;;19.20;45.00;;;;;;20312;6905;281045;-80
2022/05/23 01:54:42;;;;;;;2.50;2.37;;;19.30;45.20;;;;;;20336;6901;309759;-75
2022/05/23 01:57:07;;;;;;;2.50;2.30;;;19.60;44.80;;;;;;20336;6901;284562;-80
2022/05/23 02:02:19;;;;;;;2.43;2.30;;;19.50;44.70;;;;;;20317;6901;309823;-77
2022/05/23 02:04:47;;;;;;;2.63;2.50;;;19.50;44.60;;;;;;20330;6901;310615;-76
2022/05/23 02:07:11;;;;;;;2.30;2.20;;;19.40;44.50;;;;;;20521;6901;118303;-80
2022/05/23 02:09:36;;;;;;;2.37;2.20;;;19.40;44.40;;;;;;20545;6901;120696;-75
2022/05/23 02:12:02;;;;;;;2.53;2.35;;;19.00;44.80;;;;;;20315;6900;343260;-75
2022/05/23 02:14:27;;;;;;;2.27;2.17;;;19.10;45.30;;;;;;20531;6905;118286;-77
2022/05/23 02:16:53;;;;;;;2.57;2.47;;;19.00;45.00;;;;;;20336;6901;309790;-79
2022/05/23 02:19:18;;;;;;;3.10;2.20;;;19.10;45.00;;;;;;20545;6901;121217;-75
2022/05/23 02:21:44;;;;;;;2.57;2.47;;;19.00;44.90;;;;;;20545;6901;118093;-75
2022/05/23 02:24:10;;;;;;;2.60;2.40;;;18.80;45.10;;;;;;20321;6901;309803;-77
2022/05/23 02:26:35;;;;;;;2.27;2.10;;;18.90;45.10;;;;;;20547;6901;117788;-74
2022/05/23 02:29:01;;;;;;;2.13;2.00;;;19.10;45.00;;;;;;20327;6901;280119;-75
2022/05/23 02:31:27;;;;;;;2.37;2.23;;;19.00;44.90;;;;;;20534;6901;117705;-75
2022/05/23 02:33:53;;;;;;;2.20;2.10;;;18.80;45.10;;;;;;20537;6901;118059;-74
2022/05/23 02:36:19;;;;;;;2.72;2.20;;;18.80;45.00;;;;;;20282;6905;290955;-76
2022/05/23 02:38:44;;;;;;;2.60;2.40;;;18.90;45.00;;;;;;20331;6901;280435;-76
2022/05/23 02:41:10;;;;;;;2.10;2.00;;;19.20;44.40;;;;;;20544;6901;117569;-77
2022/05/23 02:43:36;;;;;;;2.40;2.20;;;19.10;44.90;;;;;;20320;6901;315632;-80
2022/05/23 02:46:02;;;;;;;3.27;2.43;;;19.10;44.90;;;;;;20517;6901;119510;-75
2022/05/23 02:48:27;;;;;;;2.47;2.37;;;19.00;44.80;;;;;;20338;6901;282068;-78
2022/05/23 02:50:54;;;;;;;2.30;2.20;;;19.30;45.10;;;;;;20330;6901;309808;-78
2022/05/23 02:53:19;;;;;;;2.10;2.00;;;19.30;44.50;;;;;;20532;6901;117611;-76
2022/05/23 02:55:45;;;;;;;2.20;2.00;;;19.20;44.50;;;;;;20545;6901;118191;-80
2022/05/23 02:58:10;;;;;;;2.33;2.22;;;18.90;44.80;;;;;;20316;6901;339375;-78
2022/05/23 03:00:36;;;;;;;2.35;2.25;;;19.00;44.70;;;;;;20340;6901;296583;-79
2022/05/23 03:03:01;;;;;;;2.35;2.25;;;19.30;44.10;;;;;;20332;6901;310464;-77
2022/05/23 03:05:28;;;;;;;2.80;2.20;;;19.50;44.00;;;;;;20544;6901;117937;-77
2022/05/23 03:07:54;;;;;;;2.30;2.20;;;19.50;43.90;;;;;;20519;6901;117635;-80
2022/05/23 03:10:20;;;;;;;3.53;2.20;;;19.20;44.00;;;;;;20316;6901;309734;-79
2022/05/23 03:12:45;;;;;;;2.27;2.13;;;19.40;43.70;;;;;;20485;6920;117607;-80
2022/05/23 03:15:12;;;;;;;2.40;2.20;;;19.10;43.90;;;;;;20550;6901;118040;-79
2022/05/23 03:17:37;;;;;;;2.83;2.23;;;19.10;43.90;;;;;;20535;6901;117890;-75
2022/05/23 03:20:03;;;;;;;2.22;2.12;;;18.90;44.00;;;;;;20527;6901;118219;-76
2022/05/23 03:27:59;;;;;;;2.20;2.10;;;19.20;43.70;;;;;;20519;6901;118550;-79
2022/05/23 03:30:25;;;;;;;2.23;2.13;;;19.00;43.70;;;;;;20553;6901;118883;-78
2022/05/23 03:32:51;;;;;;;2.10;2.00;;;18.90;43.80;;;;;;20307;6905;310800;-81
2022/05/23 03:35:17;;;;;;;2.40;2.30;;;19.60;42.70;;;;;;20331;6901;300167;-78
2022/05/23 03:37:42;;;;;;;2.57;2.03;;;19.60;42.60;;;;;;20545;6901;118078;-76
2022/05/23 03:40:08;;;;;;;2.50;2.07;;;19.60;42.60;;;;;;20534;6901;146811;-76
2022/05/23 03:42:34;;;;;;;2.20;2.07;;;19.50;42.90;;;;;;20547;6901;118419;-78
2022/05/23 04:30:45;;;;;;;3.47;2.37;;;21.10;43.10;;;;;;21282;6535;148479;-76
2022/05/23 04:35:57;;;;;;;5.32;3.03;;;20.20;45.90;;;;;;20496;6841;310707;-76
2022/05/23 04:38:23;;;;;;;2.80;2.60;;;20.20;45.90;;;;;;20402;6887;311454;-75
2022/05/23 04:40:49;;;;;;;2.40;2.30;;;19.40;46.80;;;;;;20550;6904;116694;-75
2022/05/23 04:43:15;;;;;;;3.10;2.80;;;19.40;46.80;;;;;;20339;6909;310805;-75
2022/05/23 04:45:41;;;;;;;2.60;2.50;;;18.90;48.30;;;;;;20558;6900;118163;-76
2022/05/23 04:50:52;;;;;;;3.57;2.60;;;18.90;50.10;;;;;;20547;6907;120875;-76
2022/05/23 04:53:18;;;;;;;3.30;2.75;;;18.80;51.10;;;;;;20365;6897;309361;-74
2022/05/23 04:55:44;;;;;;;2.67;2.47;;;18.80;51.00;;;;;;20586;6897;118452;-75
2022/05/23 04:58:12;;;;;;;5.37;2.67;;;18.70;50.50;;;;;;20551;6887;117980;-76
2022/05/23 05:00:45;;;;;;;2.47;2.37;;;18.30;50.90;;;;;;20595;6887;117777;-77
2022/05/23 05:03:11;;;;;;;2.40;2.30;;;18.30;50.90;;;;;;20566;6902;117449;-75
2022/05/23 05:05:38;;;;;;;2.77;2.57;;;18.20;51.20;;;;;;20332;6891;280689;-76
2022/05/23 05:08:03;;;;;;;2.90;2.70;;;18.40;52.80;;;;;;20308;6891;310625;-73
2022/05/23 05:10:29;;;;;;;6.00;2.80;;;18.90;52.60;;;;;;20378;6895;309274;-74
2022/05/23 05:12:55;;;;;;;2.93;2.73;;;19.20;51.90;;;;;;20384;6887;280535;-73
2022/05/23 05:15:20;;;;;;;3.00;2.70;;;19.50;50.60;;;;;;20370;6887;338125;-73
2022/05/23 05:17:46;;;;;;;3.20;3.00;;;19.60;49.20;;;;;;20306;6917;281151;-75
2022/05/23 05:20:11;;;;;;;2.90;2.60;;;19.60;49.60;;;;;;20295;6907;295695;-74
2022/05/23 05:22:37;;;;;;;2.50;2.40;;;19.60;49.60;;;;;;20512;6906;119348;-74
2022/05/23 05:25:03;;;;;;;3.20;2.92;;;19.40;49.70;;;;;;20370;6891;281200;-76
2022/05/23 05:27:29;;;;;;;4.70;2.60;;;19.40;51.00;;;;;;20599;6891;117896;-77
2022/05/23 05:29:54;;;;;;;3.10;2.72;;;19.30;51.20;;;;;;20394;6891;298723;-75
2022/05/23 05:32:39;;;;;;;3.33;3.00;;;19.40;52.60;;;;;;20582;6891;118516;-73
2022/05/23 05:35:11;;;;;;;5.80;2.83;;;19.20;52.00;;;;;;20597;6890;117330;-73
2022/05/23 05:37:43;;;;;;;3.10;2.90;;;18.70;51.30;;;;;;20569;6890;117260;-73
2022/05/23 05:40:03;;;;;;;3.13;2.93;;;18.70;51.20;;;;;;20340;6888;329398;-74
2022/05/23 05:42:30;;;;;;;2.50;2.40;;;18.90;51.60;;;;;;20615;6889;117861;-72
2022/05/23 05:44:55;;;;;;;3.30;2.90;;;18.80;51.50;;;;;;20601;6889;117170;-72
2022/05/23 05:47:21;;;;;;;3.20;3.00;;;18.70;51.50;;;;;;20386;6889;338736;-71
2022/05/23 05:49:46;;;;;;;3.00;2.80;;;18.80;52.30;;;;;;20398;6889;282277;-72
2022/05/23 05:52:13;;;;;;;3.20;2.90;;;19.40;50.80;;;;;;20365;6889;320679;-72
2022/05/23 05:54:39;;;;;;;4.00;2.80;;;19.40;50.70;;;;;;20616;6889;123193;-79
2022/05/23 05:57:06;;;;;;;4.87;3.20;;;19.40;50.40;;;;;;20398;6889;323269;-70
2022/05/23 05:59:32;;;;;;;2.80;2.70;;;19.40;50.80;;;;;;20604;6889;120880;-71
2022/05/23 06:01:57;;;;;;;3.05;2.87;;;19.30;51.20;;;;;;20379;6890;280115;-72
2022/05/23 06:04:24;;;;;;;3.10;2.90;;;19.60;50.60;;;;;;20392;6890;280204;-71
2022/05/23 06:12:21;;;;;;;3.50;3.20;;;19.80;50.60;;;;;;20360;6890;281017;-72
2022/05/23 06:14:46;;;;;;;3.37;3.17;;;19.90;49.90;;;;;;20610;6890;117294;-73
2022/05/23 06:17:12;;;;;;;3.97;2.90;;;19.90;49.90;;;;;;20612;6890;118001;-73
2022/05/23 06:19:46;;;;;;;2.70;2.57;;;19.60;51.50;;;;;;20610;6890;123457;-73
2022/05/23 06:22:11;;;;;;;3.80;3.20;;;19.50;50.70;;;;;;20367;6890;309428;-72
2022/05/23 06:24:37;;;;;;;3.83;3.17;;;19.80;51.40;;;;;;20607;6890;118316;-73
2022/05/23 06:27:06;;;;;;;3.43;3.23;;;19.90;51.10;;;;;;20398;6890;279504;-74
2022/05/23 06:29:31;;;;;;;3.03;2.83;;;20.00;50.30;;;;;;20604;6890;119110;-73
2022/05/23 06:31:57;;;;;;;3.30;3.00;;;20.10;50.80;;;;;;20585;6890;117806;-76
2022/05/23 06:34:22;;;;;;;3.10;2.90;;;20.10;51.00;;;;;;20385;6890;311843;-76
2022/05/23 06:36:48;;;;;;;3.30;3.00;;;20.50;50.30;;;;;;20400;6890;342101;-76
2022/05/23 06:39:13;;;;;;;3.10;2.90;;;21.10;50.10;;;;;;20609;6890;119616;-75
2022/05/23 06:41:39;;;;;;;2.83;2.72;;;21.40;50.20;;;;;;20397;6890;309825;-75
2022/05/23 06:44:05;;;;;;;2.67;2.53;;;22.10;48.00;;;;;;20591;6890;145977;-75
2022/05/23 06:46:31;;;;;;;3.33;2.67;;;22.10;48.40;;;;;;20400;6890;288420;-75
2022/05/23 06:48:56;;;;;;;2.92;2.72;;;22.50;48.30;;;;;;20383;6890;318997;-76
2022/05/23 06:51:22;;;;;;;2.47;2.27;;;23.10;46.60;;;;;;20607;6890;117691;-75
2022/05/23 06:53:48;;;;;;;2.92;2.72;;;23.30;46.50;;;;;;20403;6888;279774;-75
2022/05/23 06:56:14;;;;;;;2.73;2.53;;;23.70;45.30;;;;;;20598;6889;121254;-75
2022/05/23 06:58:39;;;;;;;3.20;2.30;;;23.60;45.20;;;;;;20613;6889;119165;-75
2022/05/23 07:01:06;;;;;;;2.57;2.37;;;23.40;46.10;;;;;;20606;6889;117972;-75
2022/05/23 07:03:31;;;;;;;2.72;2.53;;;23.40;46.10;;;;;;20404;6889;281066;-76
2022/05/23 07:14:13;;;;;;;2.80;2.60;;;23.90;45.50;;;;;;20587;6890;117335;-76
2022/05/23 07:16:40;;;;;;;3.10;2.87;;;24.00;46.90;;;;;;20394;6890;299678;-74
2022/05/23 07:19:05;;;;;;;3.00;2.80;;;24.00;46.90;;;;;;20390;6889;310059;-73
2022/05/23 07:21:31;;;;;;;2.80;2.70;;;24.50;45.80;;;;;;20602;6890;119640;-73
2022/05/23 07:23:58;;;;;;;2.70;2.60;;;24.50;45.70;;;;;;20593;6890;120080;-74
2022/05/23 07:26:23;;;;;;;2.80;2.60;;;24.40;47.10;;;;;;20606;6890;118030;-75
2022/05/23 07:28:48;;;;;;;3.33;2.70;;;24.30;46.80;;;;;;20398;6890;294367;-75
2022/05/23 07:31:14;;;;;;;3.00;2.80;;;24.50;44.80;;;;;;20597;6890;117940;-76
2022/05/23 07:33:39;;;;;;;2.80;2.60;;;24.50;44.60;;;;;;20400;6890;283188;-75
2022/05/23 07:36:05;;;;;;;2.90;2.70;;;24.60;43.60;;;;;;20362;6890;279386;-73
2022/05/23 07:38:31;;;;;;;2.60;2.50;;;24.80;44.90;;;;;;20605;6890;118649;-76
2022/05/23 07:40:58;;;;;;;2.57;2.40;;;24.80;44.90;;;;;;20602;6890;117438;-76
2022/05/23 07:43:22;;;;;;;3.20;3.00;;;24.60;45.70;;;;;;20612;6890;117837;-76
2022/05/23 07:45:48;;;;;;;3.47;3.20;;;24.50;45.80;;;;;;20608;6890;117388;-76
2022/05/23 07:48:14;;;;;;;3.17;2.87;;;24.50;46.00;;;;;;20386;6890;280424;-76
2022/05/23 07:50:39;;;;;;;3.33;2.57;;;24.60;44.90;;;;;;20617;6890;118144;-75
2022/05/23 08:01:21;;;;;;;2.80;2.60;;;25.30;45.30;;;;;;20401;6890;311893;-76
2022/05/23 08:03:47;;;;;;;3.37;2.60;;;25.50;44.60;;;;;;20606;6888;117724;-76
2022/05/23 08:06:13;;;;;;;2.80;2.60;;;25.60;44.90;;;;;;20383;6889;295603;-74
2022/05/23 08:08:39;;;;;;;2.63;2.47;;;25.80;44.30;;;;;;20604;6889;120606;-79
2022/05/23 08:11:08;;;;;;;2.90;2.70;;;26.10;43.70;;;;;;20383;6889;328890;-79
2022/05/23 08:13:31;;;;;;;2.70;2.50;;;26.10;43.80;;;;;;20598;6889;117768;-77
2022/05/23 08:15:57;;;;;;;4.27;2.60;;;26.10;43.60;;;;;;20384;6889;279846;-79
2022/05/23 08:18:22;;;;;;;2.50;2.40;;;26.30;43.60;;;;;;20587;6889;117727;-78
2022/05/23 08:20:48;;;;;;;2.80;2.50;;;26.40;44.20;;;;;;20592;6889;117507;-77
2022/05/23 08:23:15;;;;;;;3.03;2.50;;;26.30;44.10;;;;;;20612;6889;118855;-76
2022/05/23 08:25:39;;;;;;;3.00;2.70;;;26.10;43.90;;;;;;20609;6890;118617;-75
2022/05/23 08:28:05;;;;;;;2.70;2.50;;;25.90;44.20;;;;;;20586;6890;117330;-77
2022/05/23 08:30:31;;;;;;;2.80;2.60;;;25.90;44.10;;;;;;20391;6890;279798;-76
2022/05/23 08:32:57;;;;;;;3.10;2.90;;;26.10;44.10;;;;;;20398;6890;309793;-75
2022/05/23 08:35:24;;;;;;;3.17;2.60;;;26.60;43.90;;;;;;20589;6890;118862;-75
2022/05/23 08:37:48;;;;;;;3.78;2.90;;;26.90;43.90;;;;;;20388;6890;309861;-76
2022/05/23 08:40:13;;;;;;;2.42;2.25;;;27.30;43.30;;;;;;20587;6890;117779;-76
2022/05/23 08:42:48;;;;;;;2.75;2.50;;;27.50;43.00;;;;;;20404;6890;282550;-75
2022/05/23 08:45:20;;;;;;;4.10;2.60;;;27.80;41.30;;;;;;20391;6890;309506;-75
2022/05/23 08:47:58;;;;;;;3.23;2.53;;;28.30;41.10;;;;;;20609;6890;117330;-75
2022/05/23 08:50:24;;;;;;;4.07;2.70;;;28.40;41.50;;;;;;19772;6890;309379;-75
2022/05/23 08:52:53;;;;;;;2.80;2.60;;;28.60;40.50;;;;;;20365;6890;335108;-76
2022/05/23 08:55:19;;;;;;;2.90;2.70;;;28.90;39.60;;;;;;20617;6890;118117;-82
2022/05/23 08:58:06;;;;;;;2.77;2.57;;;29.00;39.00;;;;;;20591;6890;118090;-79
2022/05/23 09:00:45;;;;;;;2.90;2.70;;;29.00;39.60;;;;;;19860;6890;117451;-76
2022/05/23 09:03:18;;;;;;;3.53;2.83;;;29.00;37.90;;;;;;20147;6890;309345;-75
2022/05/23 09:05:58;;;;;;;2.80;2.60;;;29.10;38.50;;;;;;20593;6890;118057;-76
2022/05/23 09:08:24;;;;;;;3.07;2.80;;;29.00;38.40;;;;;;20591;6890;117496;-76
2022/05/23 09:10:57;;;;;;;3.07;2.70;;;28.80;38.40;;;;;;20584;6890;117364;-75
2022/05/23 09:13:21;;;;;;;3.05;2.83;;;28.60;38.50;;;;;;20336;6890;339554;-75
2022/05/23 09:15:47;;;;;;;3.00;2.80;;;28.80;39.40;;;;;;20362;6888;282857;-75
2022/05/23 09:18:13;;;;;;;3.00;2.70;;;28.80;40.00;;;;;;20369;6889;279871;-77
2022/05/23 09:20:45;;;;;;;2.97;2.72;;;29.00;38.90;;;;;;20333;6889;308996;-77
2022/05/23 09:23:11;;;;;;;4.60;2.83;;;29.10;37.80;;;;;;20599;6889;117559;-76
2022/05/23 09:25:36;;;;;;;3.13;2.70;;;28.70;38.10;;;;;;20550;6889;118766;-76
2022/05/23 09:28:12;;;;;;;2.80;2.60;;;28.30;38.50;;;;;;20589;6889;117782;-77
2022/05/23 09:30:37;;;;;;;3.30;2.90;;;27.80;39.10;;;;;;20384;6889;279367;-77
2022/05/23 09:33:12;;;;;;;4.63;3.23;;;27.80;39.90;;;;;;20382;6889;309603;-77
2022/05/23 09:35:42;;;;;;;3.20;2.90;;;28.00;39.60;;;;;;20368;6890;309639;-77
2022/05/23 09:38:14;;;;;;;3.70;3.10;;;28.10;39.70;;;;;;20369;6890;281210;-77
2022/05/23 09:40:40;;;;;;;3.78;3.30;;;28.20;39.20;;;;;;20377;6890;310005;-77
2022/05/23 09:49:17;;;;;;;3.03;2.83;;;27.90;40.50;;;;;;20623;6890;118006;-76
2022/05/23 09:51:58;;;;;;;3.40;3.10;;;27.70;40.60;;;;;;20393;6890;299372;-76
2022/05/23 09:54:38;;;;;;;3.28;2.97;;;27.90;40.00;;;;;;20377;6890;310615;-76
2022/05/23 09:57:04;;;;;;;3.95;3.50;;;28.20;40.00;;;;;;20392;6890;310792;-76
2022/05/23 09:59:33;;;;;;;3.30;3.00;;;28.30;38.60;;;;;;20398;6890;300716;-76
2022/05/23 10:02:16;;;;;;;3.03;2.83;;;28.20;39.00;;;;;;20571;6890;119174;-76
2022/05/23 10:04:41;;;;;;;4.15;3.22;;;28.20;39.00;;;;;;19867;6890;309152;-76
2022/05/23 10:07:07;;;;;;;4.20;3.40;;;28.10;38.50;;;;;;20605;6890;118783;-77
2022/05/23 10:09:33;;;;;;;3.93;3.20;;;27.90;39.40;;;;;;20573;6890;117584;-77
2022/05/23 10:11:58;;;;;;;3.70;3.10;;;27.50;40.20;;;;;;20371;6890;280631;-77
2022/05/23 10:14:24;;;;;;;4.40;3.27;;;27.50;40.70;;;;;;20582;6890;117978;-77
2022/05/23 10:16:51;;;;;;;3.60;3.30;;;27.40;41.40;;;;;;20384;6890;279815;-77
2022/05/23 10:19:33;;;;;;;3.47;3.17;;;27.40;42.10;;;;;;20372;6890;280680;-77
2022/05/23 10:22:16;;;;;;;5.23;3.63;;;27.30;42.60;;;;;;20577;6890;119072;-76
2022/05/23 10:24:44;;;;;;;5.40;3.30;;;27.20;42.50;;;;;;20603;6890;120826;-77
2022/05/23 10:27:12;;;;;;;3.97;3.57;;;26.80;43.70;;;;;;20358;6888;292653;-76
2022/05/23 10:29:52;;;;;;;3.85;3.55;;;26.80;46.10;;;;;;20395;6889;321041;-76
2022/05/23 10:32:20;;;;;;;4.23;3.57;;;27.00;45.80;;;;;;20375;6889;283108;-75
2022/05/23 10:34:52;;;;;;;6.57;3.70;;;27.00;45.90;;;;;;20370;6889;313715;-78
2022/05/23 10:37:24;;;;;;;3.37;3.07;;;27.00;46.10;;;;;;20607;6889;117861;-74
2022/05/23 10:43:05;;;;;;;3.47;3.17;;;26.20;46.30;;;;;;20624;6889;118123;-75
2022/05/23 10:45:47;;;;;;;3.37;3.17;;;25.80;47.00;;;;;;20614;6889;118223;-79
2022/05/23 10:48:46;;;;;;;3.80;3.50;;;25.40;47.70;;;;;;20569;6890;119089;-76
2022/05/23 10:51:29;;;;;;;4.10;3.80;;;25.10;48.40;;;;;;20389;6890;311918;-74
2022/05/23 10:54:07;;;;;;;4.07;3.70;;;25.20;49.50;;;;;;20578;6890;117907;-74
2022/05/23 10:57:12;;;;;;;4.40;4.10;;;25.00;49.00;;;;;;20374;6890;309708;-77
2022/05/23 10:59:41;;;;;;;4.67;4.37;;;25.00;50.40;;;;;;20400;6890;278819;-75
2022/05/23 11:02:06;;;;;;;4.55;4.20;;;25.10;51.60;;;;;;20373;6890;341785;-76
2022/05/23 11:04:55;;;;;;;5.87;4.13;;;25.20;51.60;;;;;;20544;6890;120446;-79
2022/05/23 11:07:37;;;;;;;4.33;4.10;;;25.00;51.40;;;;;;20608;6890;118568;-77
2022/05/23 11:10:25;;;;;;;5.70;3.77;;;24.50;51.80;;;;;;20562;6890;118282;-78
2022/05/23 11:13:11;;;;;;;6.83;4.40;;;24.10;52.40;;;;;;20577;6890;117444;-76
2022/05/23 11:15:43;;;;;;;4.60;4.20;;;23.80;52.70;;;;;;20368;6890;309513;-77
2022/05/23 11:18:18;;;;;;;6.23;4.17;;;23.90;53.80;;;;;;20585;6890;118092;-76
2022/05/23 11:20:43;;;;;;;6.17;4.97;;;23.80;53.30;;;;;;20604;6890;118543;-76
2022/05/23 11:23:35;;;;;;;7.53;5.55;;;23.40;53.80;;;;;;20405;6890;313889;-75
2022/05/23 11:26:20;;;;;;;6.03;5.30;;;23.10;55.80;;;;;;20591;6890;117883;-77
2022/05/23 11:34:43;;;;;;;5.27;4.77;;;22.20;56.80;;;;;;20600;6890;118359;-75
2022/05/23 11:37:42;;;;;;;6.37;5.07;;;22.00;57.30;;;;;;20592;6890;119447;-76
2022/05/23 11:39:47;;;;;;;9.57;4.60;;;21.70;57.60;;;;;;20540;6888;117771;-79
2022/05/23 11:42:32;;;;;;;9.97;4.83;;;21.60;58.30;;;;;;20579;6889;119032;-76
2022/05/23 11:47:53;;;;;;;10.53;5.07;;;21.40;59.20;;;;;;20614;6889;117566;-78
2022/05/23 11:50:18;;;;;;;7.80;4.53;;;21.30;59.70;;;;;;20589;6889;118295;-78
2022/05/23 11:52:44;;;;;;;5.80;4.60;;;21.20;60.00;;;;;;20388;6889;309890;-75
2022/05/23 11:55:10;;;;;;;8.40;4.27;;;21.50;60.60;;;;;;20594;6889;118027;-78
2022/05/23 11:57:38;;;;;;;5.40;4.33;;;21.50;59.80;;;;;;20382;6889;299692;-78
2022/05/23 12:00:08;;;;;;;4.43;3.83;;;21.60;60.30;;;;;;20590;6890;117611;-81
2022/05/23 12:02:37;;;;;;;6.13;4.60;;;21.40;59.70;;;;;;20338;6890;285516;-78
2022/05/23 12:05:02;;;;;;;6.87;4.20;;;21.30;60.40;;;;;;20387;6890;282390;-78
2022/05/23 12:07:39;;;;;;;5.30;3.77;;;21.30;60.30;;;;;;20387;6890;299675;-79
2022/05/23 12:10:28;;;;;;;3.93;3.00;;;21.20;60.30;;;;;;20071;6890;280608;-78
2022/05/23 12:12:56;;;;;;;2.87;2.60;;;21.10;59.10;;;;;;20594;6890;117523;-78
2022/05/23 12:15:42;;;;;;;4.40;3.30;;;20.40;61.10;;;;;;20386;6890;280088;-76
2022/05/23 12:18:07;;;;;;;4.90;3.30;;;20.40;60.40;;;;;;20338;6890;302379;-76
2022/05/23 12:20:33;;;;;;;5.45;2.90;;;20.40;60.30;;;;;;20572;6890;117847;-76
2022/05/23 12:23:28;;;;;;;3.53;3.23;;;20.30;60.70;;;;;;20319;6890;280207;-76
2022/05/23 12:26:07;;;;;;;7.70;3.40;;;20.30;63.70;;;;;;20598;6890;119648;-78
2022/05/23 12:28:33;;;;;;;6.60;3.62;;;20.30;63.70;;;;;;20408;6890;281091;-77
2022/05/23 12:31:05;;;;;;;4.82;3.70;;;20.50;64.20;;;;;;20195;6890;342555;-76
2022/05/23 12:33:30;;;;;;;4.43;3.30;;;20.80;64.10;;;;;;20592;6890;119029;-76
2022/05/23 12:35:59;;;;;;;3.20;2.90;;;20.90;63.70;;;;;;20562;6890;117514;-78
2022/05/23 12:38:44;;;;;;;6.37;3.20;;;20.80;64.00;;;;;;20407;6890;120024;-75
2022/05/23 12:41:22;;;;;;;6.82;3.60;;;20.80;64.50;;;;;;20393;6890;338615;-75
2022/05/23 12:43:51;;;;;;;5.60;3.30;;;21.10;65.10;;;;;;20396;6890;280311;-79
2022/05/23 12:46:36;;;;;;;7.07;3.45;;;21.60;64.30;;;;;;19642;6890;308905;-77
2022/05/23 12:49:02;;;;;;;5.18;3.60;;;22.10;63.20;;;;;;20369;6890;339456;-77
2022/05/23 12:51:42;;;;;;;4.40;3.70;;;22.50;62.40;;;;;;20388;6888;339039;-75
2022/05/23 12:54:22;;;;;;;4.43;3.23;;;22.90;62.00;;;;;;20578;6889;118044;-77
2022/05/23 12:57:14;;;;;;;4.20;3.40;;;23.00;62.20;;;;;;20373;6889;339049;-75
2022/05/23 12:59:50;;;;;;;4.03;3.10;;;23.20;62.10;;;;;;20606;6889;117984;-76
2022/05/23 13:02:15;;;;;;;4.93;3.30;;;23.20;61.50;;;;;;20372;6889;312009;-76
2022/05/23 13:04:47;;;;;;;5.27;3.27;;;23.50;61.80;;;;;;20380;6889;304843;-76
2022/05/23 13:07:13;;;;;;;4.37;3.20;;;23.80;60.30;;;;;;20378;6889;309465;-77
2022/05/23 13:09:48;;;;;;;4.57;3.50;;;24.10;59.50;;;;;;20378;6890;301971;-76
2022/05/23 13:12:17;;;;;;;5.55;3.50;;;24.30;60.00;;;;;;20345;6890;338984;-76
2022/05/23 13:14:57;;;;;;;4.70;3.10;;;24.50;58.70;;;;;;20591;6890;118374;-77
2022/05/23 13:17:32;;;;;;;4.43;3.10;;;24.50;58.60;;;;;;20395;6890;306546;-77
2022/05/23 13:22:45;;;;;;;4.47;3.22;;;24.80;56.50;;;;;;20396;6890;338930;-77
2022/05/23 13:25:10;;;;;;;4.10;3.23;;;24.80;55.20;;;;;;20611;6890;116361;-77
2022/05/23 13:27:41;;;;;;;5.12;3.03;;;24.40;56.60;;;;;;20596;6890;118693;-77
2022/05/23 13:30:08;;;;;;;3.72;3.20;;;24.40;56.60;;;;;;20347;6890;318685;-78
2022/05/23 13:32:34;;;;;;;4.00;3.37;;;24.40;56.90;;;;;;20243;6890;309304;-78
2022/05/23 13:34:59;;;;;;;3.10;2.80;;;24.60;56.30;;;;;;20612;6890;117536;-81
2022/05/23 13:37:25;;;;;;;3.87;3.43;;;24.40;56.50;;;;;;20391;6890;310191;-78
2022/05/23 13:39:52;;;;;;;4.90;3.10;;;24.50;57.30;;;;;;20585;6890;119591;-78
2022/05/23 13:42:20;;;;;;;5.77;3.10;;;24.40;57.60;;;;;;20576;6890;119467;-76
2022/05/23 13:44:46;;;;;;;3.20;2.90;;;24.20;58.40;;;;;;20384;6890;312519;-79
2022/05/23 13:47:12;;;;;;;4.80;2.90;;;24.40;57.00;;;;;;20603;6890;117794;-80
2022/05/23 13:49:44;;;;;;;3.20;2.90;;;24.40;57.00;;;;;;20587;6890;117194;-78
2022/05/23 13:52:16;;;;;;;5.13;2.87;;;24.30;57.60;;;;;;20352;6890;285768;-77
2022/05/23 13:54:52;;;;;;;3.10;2.80;;;24.40;57.30;;;;;;20564;6890;117520;-78
2022/05/23 13:57:21;;;;;;;4.20;2.90;;;24.40;57.10;;;;;;20595;6890;121140;-79
2022/05/23 13:59:52;;;;;;;4.27;2.80;;;24.30;57.50;;;;;;20576;6890;118812;-80
2022/05/23 14:02:18;;;;;;;3.43;2.90;;;24.20;57.60;;;;;;20358;6888;309539;-81
2022/05/23 14:04:43;;;;;;;4.53;2.83;;;24.40;55.50;;;;;;20377;6889;338871;-76
2022/05/23 14:07:12;;;;;;;3.83;2.50;;;24.70;55.50;;;;;;20536;6889;119142;-77
2022/05/23 14:09:34;;;;;;;4.63;2.60;;;24.80;55.50;;;;;;20375;6889;295097;-78
2022/05/23 14:12:03;;;;;;;3.97;2.70;;;24.90;55.00;;;;;;20343;6889;280167;-80
2022/05/23 14:14:45;;;;;;;;;;;;;;;;;;;;;
2022/05/23 14:17:09;;;;;;;4.40;2.50;;;25.20;54.50;;;;;;20510;6889;117138;-79
2022/05/23 14:19:45;;;;;;;3.20;2.13;;;25.00;54.60;;;;;;20619;6889;116381;-77
2022/05/23 14:22:25;;;;;;;4.60;2.70;;;24.80;54.80;;;;;;20383;6890;281350;-79
2022/05/23 14:24:56;;;;;;;2.65;2.45;;;25.00;53.50;;;;;;20307;6890;320773;-77
2022/05/23 14:27:34;;;;;;;3.97;2.50;;;25.40;54.00;;;;;;20601;6890;117369;-78
2022/05/23 14:30:10;;;;;;;3.27;2.17;;;25.30;53.90;;;;;;20336;6890;309949;-77
2022/05/23 14:32:41;;;;;;;4.80;2.80;;;25.50;52.50;;;;;;20369;6890;280157;-77
2022/05/23 14:35:18;;;;;;;3.37;2.35;;;25.80;50.30;;;;;;20395;6890;309710;-76